Terminal Aerodrome Forecast
Issued by NWS

Home | Current Version | Previous Version | Text Only | Print | Product List | Glossary On
Versions: 1 2 3 4 5 6 7 8 9 10 11 12 13 14 15 16 17 18 19 20 21 22 23 24 25 26 27 28 29 30 31 32 33 34 35 36 37 38
000
FTUS41 KBOX 241739
TAFHYA
TAF
KHYA 241739Z 2418/2518 01009KT P6SM BKN008
     FM242000 02009KT P6SM BKN025
     FM242130 02008KT P6SM BKN035
     FM242300 02007KT P6SM BKN050
     FM250000 01006KT P6SM BKN020
     FM250200 VRB03KT P6SM BKN110
     FM250700 VRB03KT P6SM SCT050
     FM251300 36007KT P6SM FEW250=

USA.gov is the U.S. government's official web portal to all federal, state and local government web resources and services.